createdAt,value
2023-04-09T00:04:36.394Z,99735.55
2023-04-09T00:09:45.479Z,99736.71
2023-04-09T00:14:54.067Z,99730.78
2023-04-09T00:20:01.656Z,99733.85
2023-04-09T00:25:13.858Z,99733.48
2023-04-09T00:30:22.846Z,99737.70
2023-04-09T00:35:30.930Z,99735.19
2023-04-09T00:40:38.563Z,99736.99
2023-04-09T00:45:47.312Z,99731.85
2023-04-09T00:50:55.174Z,99732.50
2023-04-09T00:56:02.911Z,99730.14
2023-04-09T01:01:10.921Z,99727.33
2023-04-09T01:06:25.339Z,99726.09
2023-04-09T01:11:40.412Z,99723.58
2023-04-09T01:16:54.134Z,99718.67
2023-04-09T01:22:10.919Z,99719.05
2023-04-09T01:27:19.111Z,99716.75
2023-04-09T01:32:28.162Z,99719.79
2023-04-09T01:37:37.189Z,99720.70
2023-04-09T01:42:45.415Z,99724.59
2023-04-09T01:47:54.334Z,99722.83
2023-04-09T01:53:05.354Z,99727.96
2023-04-09T01:58:13.421Z,99727.77
2023-04-09T02:03:25.781Z,99725.36
2023-04-09T02:08:36.808Z,99732.63
2023-04-09T02:13:46.039Z,99730.73
2023-04-09T02:18:57.156Z,99734.74
2023-04-09T02:24:04.904Z,99738.23
2023-04-09T02:29:12.359Z,99736.45
2023-04-09T02:34:20.175Z,99734.87
2023-04-09T02:39:27.422Z,99733.09
2023-04-09T02:44:33.150Z,99728.81
2023-04-09T02:49:41.303Z,99727.63
2023-04-09T02:54:48.648Z,99727.20
2023-04-09T02:59:57.587Z,99733.63
2023-04-09T03:05:05.887Z,99731.98
2023-04-09T03:10:14.013Z,99730.02
2023-04-09T03:15:21.757Z,99718.37
2023-04-09T03:20:29.530Z,99726.16
2023-04-09T03:25:37.492Z,99727.50
2023-04-09T03:30:45.014Z,99724.65
2023-04-09T03:35:52.829Z,99725.23
2023-04-09T03:41:00.801Z,99722.52
2023-04-09T03:46:16.120Z,99722.72
2023-04-09T03:51:23.578Z,99729.27
2023-04-09T03:56:31.155Z,99728.38
2023-04-09T04:01:38.740Z,99731.84
2023-04-09T04:06:46.576Z,99734.08
2023-04-09T04:11:54.025Z,99734.67
2023-04-09T04:17:01.426Z,99736.12
2023-04-09T04:22:09.085Z,99734.67
2023-04-09T04:27:16.691Z,99736.52
2023-04-09T04:32:24.157Z,99743.34
2023-04-09T04:37:31.652Z,99743.86
2023-04-09T04:42:39.415Z,99745.34
2023-04-09T04:52:57.934Z,99749.59
2023-04-09T04:58:02.007Z,99752.71
2023-04-09T05:03:06.278Z,99753.56
2023-04-09T05:08:10.603Z,99751.58
2023-04-09T05:13:14.749Z,99752.89
2023-04-09T05:18:19.073Z,99760.00
2023-04-09T05:23:23.823Z,99760.15
2023-04-09T05:28:28.558Z,99757.55
2023-04-09T05:33:37.763Z,99762.61
2023-04-09T05:38:42.565Z,99763.56
2023-04-09T05:43:47.127Z,99762.15
2023-04-09T05:48:53.300Z,99766.42
2023-04-09T05:53:58.981Z,99769.92
2023-04-09T05:59:04.228Z,99780.65
2023-04-09T06:04:10.118Z,99783.54
2023-04-09T06:09:14.635Z,99787.94
2023-04-09T06:14:18.759Z,99787.73
2023-04-09T06:19:23.855Z,99794.46
2023-04-09T06:24:28.595Z,99791.17
2023-04-09T06:29:33.457Z,99789.67
2023-04-09T06:34:38.452Z,99792.31
2023-04-09T06:39:47.716Z,99800.80
2023-04-09T06:45:02.413Z,99805.06
2023-04-09T06:50:09.025Z,99808.58
2023-04-09T06:55:13.607Z,99811.60
2023-04-09T07:00:18.055Z,99811.60
2023-04-09T07:05:22.172Z,99813.99
2023-04-09T07:10:26.713Z,99814.27
2023-04-09T07:15:32.353Z,99818.70
2023-04-09T07:20:37.110Z,99820.90
2023-04-09T07:25:40.962Z,99823.73
2023-04-09T07:30:46.718Z,99823.38
2023-04-09T07:35:50.842Z,99828.42
2023-04-09T07:40:54.783Z,99823.92
2023-04-09T07:45:58.721Z,99829.04
2023-04-09T07:51:03.128Z,99824.98
2023-04-09T07:56:08.813Z,99824.33
2023-04-09T08:01:14.287Z,99827.45
2023-04-09T08:06:18.088Z,99828.16
2023-04-09T08:11:25.555Z,99833.87
2023-04-09T08:16:32.898Z,99837.85
2023-04-09T08:21:42.690Z,99838.47
2023-04-09T08:26:47.145Z,99835.23
2023-04-09T08:31:52.015Z,99836.58
2023-04-09T08:36:57.234Z,99835.50
2023-04-09T08:42:06.749Z,99837.59
2023-04-09T08:47:12.206Z,99836.05
2023-04-09T08:52:18.690Z,99841.62
2023-04-09T08:57:24.316Z,99838.57
2023-04-09T09:02:31.058Z,99839.55
2023-04-09T09:07:36.111Z,99841.06
2023-04-09T09:12:42.523Z,99838.33
2023-04-09T09:17:56.137Z,99832.77
2023-04-09T09:23:01.128Z,99834.02
2023-04-09T09:28:09.658Z,99834.04
2023-04-09T09:33:14.002Z,99840.27
2023-04-09T09:38:18.255Z,99840.21
2023-04-09T09:43:22.405Z,99843.51
2023-04-09T09:48:28.345Z,99840.27
2023-04-09T09:53:36.580Z,99832.90
2023-04-09T09:58:45.842Z,99830.76
2023-04-09T10:03:52.122Z,99824.59
2023-04-09T10:08:59.590Z,99829.66
2023-04-09T10:14:04.805Z,99825.14
2023-04-09T10:19:13.881Z,99820.05
2023-04-09T10:24:18.415Z,99818.52
2023-04-09T10:29:28.881Z,99811.70
2023-04-09T10:34:38.821Z,99808.77
2023-04-09T10:39:46.895Z,99805.64
2023-04-09T10:45:06.461Z,99803.95
2023-04-09T10:50:18.181Z,99802.27
2023-04-09T10:55:36.481Z,99801.12
2023-04-09T11:00:45.440Z,99801.55
2023-04-09T11:05:54.438Z,99798.00
2023-04-09T11:10:58.985Z,99805.11
2023-04-09T11:16:06.165Z,99801.91
2023-04-09T11:21:13.039Z,99801.39
2023-04-09T11:26:16.033Z,99796.02
2023-04-09T11:31:26.624Z,99793.83
2023-04-09T11:36:31.822Z,99792.82
2023-04-09T11:41:36.457Z,99792.74
2023-04-09T11:52:52.551Z,99783.56
2023-04-09T11:58:00.515Z,99796.04
2023-04-09T12:03:06.948Z,99794.67
2023-04-09T12:08:11.570Z,99802.70
2023-04-09T12:13:16.306Z,99803.84
2023-04-09T12:18:23.306Z,99804.50
2023-04-09T12:23:27.300Z,99803.26
2023-04-09T12:28:31.761Z,99797.45
2023-04-09T12:33:38.857Z,99795.98
2023-04-09T12:38:43.427Z,99791.15
2023-04-09T12:43:47.696Z,99795.73
2023-04-09T12:48:51.631Z,99792.02
2023-04-09T12:53:55.865Z,99792.21
2023-04-09T12:59:01.319Z,99793.16
2023-04-09T13:04:05.919Z,99788.46
2023-04-09T13:09:10.048Z,99789.77
2023-04-09T13:14:14.233Z,99790.27
2023-04-09T13:19:18.769Z,99787.95
2023-04-09T13:24:22.745Z,99782.11
2023-04-09T13:29:28.818Z,99784.41
2023-04-09T13:34:33.095Z,99787.25
2023-04-09T13:39:37.796Z,99783.16
2023-04-09T13:44:44.739Z,99783.30
2023-04-09T13:49:50.967Z,99781.05
2023-04-09T13:54:55.103Z,99783.38
2023-04-09T14:00:01.602Z,99777.69
2023-04-09T14:05:07.592Z,99777.23
2023-04-09T14:10:12.444Z,99777.64
2023-04-09T14:15:16.539Z,99774.46
2023-04-09T14:20:20.681Z,99770.11
2023-04-09T14:25:24.512Z,99764.77
2023-04-09T14:30:28.414Z,99763.77
2023-04-09T14:35:32.454Z,99762.73
2023-04-09T14:40:37.883Z,99762.55
2023-04-09T14:45:41.717Z,99763.30
2023-04-09T14:54:38.217Z,99755.53
2023-04-09T14:59:45.964Z,99753.57
2023-04-09T15:04:53.430Z,99754.03
2023-04-09T15:10:01.429Z,99754.07
2023-04-09T15:15:11.481Z,99749.96
2023-04-09T15:20:19.414Z,99746.86
2023-04-09T15:25:27.007Z,99749.33
2023-04-09T15:30:35.620Z,99745.29
2023-04-09T15:35:43.238Z,99750.49
2023-04-09T15:40:51.971Z,99747.35
2023-04-09T15:45:59.726Z,99743.73
2023-04-09T15:51:08.278Z,99740.79
2023-04-09T15:56:16.776Z,99744.37
2023-04-09T16:01:24.470Z,99745.59
2023-04-09T16:06:32.029Z,99746.34
2023-04-09T16:11:40.925Z,99751.46
2023-04-09T16:16:50.386Z,99751.22
2023-04-09T16:21:57.837Z,99753.80
2023-04-09T16:27:05.570Z,99753.02
2023-04-09T16:32:13.462Z,99757.09
2023-04-09T16:37:21.265Z,99754.55
2023-04-09T16:42:30.707Z,99754.63
2023-04-09T16:47:38.650Z,99760.88
2023-04-09T16:52:46.844Z,99760.20
2023-04-09T16:57:56.181Z,99761.77
2023-04-09T17:03:03.931Z,99764.20
2023-04-09T17:08:11.942Z,99767.71
2023-04-09T17:13:19.900Z,99766.48
2023-04-09T17:18:27.521Z,99764.64
2023-04-09T17:23:35.338Z,99770.91
2023-04-09T17:28:43.395Z,99772.63
2023-04-09T17:33:51.403Z,99776.48
2023-04-09T17:38:59.348Z,99779.45
2023-04-09T17:44:07.405Z,99787.47
2023-04-09T17:49:15.215Z,99789.20
2023-04-09T17:54:22.944Z,99796.36
2023-04-09T17:59:31.043Z,99802.86
2023-04-09T18:04:38.607Z,99803.84
2023-04-09T18:09:46.577Z,99804.06
2023-04-09T18:14:54.600Z,99808.13
2023-04-09T18:20:02.467Z,99808.27
2023-04-09T18:25:11.873Z,99812.58
2023-04-09T18:30:19.882Z,99820.25
2023-04-09T18:35:27.732Z,99820.84
2023-04-09T18:40:41.239Z,99826.73
2023-04-09T18:45:50.116Z,99834.57
2023-04-09T18:50:57.757Z,99836.15
2023-04-09T18:56:05.332Z,99836.73
2023-04-09T19:01:17.725Z,99841.02
2023-04-09T19:06:25.845Z,99845.52
2023-04-09T19:11:33.548Z,99846.53
2023-04-09T19:16:41.204Z,99844.25
2023-04-09T19:21:48.791Z,99844.43
2023-04-09T19:26:56.872Z,99848.95
2023-04-09T19:32:04.165Z,99855.52
2023-04-09T19:37:12.098Z,99854.94
2023-04-09T19:42:19.730Z,99856.80
2023-04-09T19:47:27.610Z,99856.83
2023-04-09T19:52:35.280Z,99852.31
2023-04-09T19:57:44.261Z,99849.83
2023-04-09T20:02:52.734Z,99856.58
2023-04-09T20:08:00.935Z,99860.00
2023-04-09T20:13:09.191Z,99858.30
2023-04-09T20:18:16.930Z,99857.18
2023-04-09T20:23:24.607Z,99858.77
2023-04-09T20:28:32.352Z,99860.45
2023-04-09T20:33:40.179Z,99861.10
2023-04-09T20:38:49.575Z,99860.20
2023-04-09T20:43:57.218Z,99859.65
2023-04-09T20:49:05.781Z,99859.55
2023-04-09T20:54:14.331Z,99860.59
2023-04-09T20:59:23.755Z,99861.01
2023-04-09T21:04:31.566Z,99851.96
2023-04-09T21:09:39.316Z,99858.05
2023-04-09T21:14:48.099Z,99856.14
2023-04-09T21:19:56.962Z,99853.73
2023-04-09T21:25:05.438Z,99854.62
2023-04-09T21:30:13.893Z,99857.74
2023-04-09T21:35:21.793Z,99854.84
2023-04-09T21:40:29.514Z,99855.98
2023-04-09T21:45:37.279Z,99861.78
2023-04-09T21:54:39.781Z,99858.47
2023-04-09T21:59:46.984Z,99867.56
2023-04-09T22:04:54.520Z,99864.59
2023-04-09T22:10:01.704Z,99867.73
2023-04-09T22:15:08.737Z,99871.44
2023-04-09T22:20:16.229Z,99868.51
2023-04-09T22:25:23.980Z,99869.44
2023-04-09T22:30:31.590Z,99865.57
2023-04-09T22:35:39.125Z,99865.89
2023-04-09T22:40:48.982Z,99863.59
2023-04-09T22:45:57.519Z,99864.89
2023-04-09T22:51:05.163Z,99863.71
2023-04-09T22:56:13.037Z,99867.73
2023-04-09T23:04:40.205Z,99859.14
2023-04-09T23:09:45.874Z,99863.45
2023-04-09T23:14:51.329Z,99861.23
2023-04-09T23:19:55.572Z,99860.43
2023-04-09T23:24:59.907Z,99859.78
2023-04-09T23:30:05.622Z,99859.45
2023-04-09T23:35:11.041Z,99858.19
2023-04-09T23:40:17.500Z,99857.20
2023-04-09T23:45:23.169Z,99854.28
2023-04-09T23:50:28.454Z,99847.78
2023-04-09T23:55:33.658Z,99844.15
